createdAt,value
2023-04-09T00:00:42.222Z,13.85
2023-04-09T00:03:08.802Z,14.40
2023-04-09T00:05:40.248Z,16.35
2023-04-09T00:08:07.397Z,13.55
2023-04-09T00:10:33.870Z,14.70
2023-04-09T00:13:00.584Z,14.15
2023-04-09T00:15:31.230Z,14.35
2023-04-09T00:17:59.143Z,14.13
2023-04-09T00:20:25.860Z,14.80
2023-04-09T00:22:52.358Z,14.38
2023-04-09T00:25:19.913Z,14.85
2023-04-09T00:27:46.606Z,14.13
2023-04-09T00:30:13.201Z,13.40
2023-04-09T00:32:39.682Z,14.05
2023-04-09T00:35:06.500Z,15.35
2023-04-09T00:37:32.916Z,14.68
2023-04-09T00:39:59.313Z,12.88
2023-04-09T00:42:26.559Z,14.50
2023-04-09T00:44:53.005Z,14.35
2023-04-09T00:47:19.534Z,13.18
2023-04-09T00:49:46.129Z,14.20
2023-04-09T00:52:12.690Z,14.32
2023-04-09T00:54:39.208Z,12.88
2023-04-09T00:57:05.810Z,13.57
2023-04-09T00:59:32.684Z,12.73
2023-04-09T01:01:59.237Z,13.57
2023-04-09T01:04:26.018Z,15.07
2023-04-09T01:07:02.209Z,13.75
2023-04-09T01:09:33.857Z,14.18
2023-04-09T01:12:16.202Z,13.13
2023-04-09T01:14:53.633Z,15.35
2023-04-09T01:17:49.332Z,14.07
2023-04-09T01:23:01.166Z,12.95
2023-04-09T01:25:38.159Z,13.35
2023-04-09T01:30:43.473Z,14.18
2023-04-09T01:35:38.856Z,12.98
2023-04-09T01:38:06.249Z,14.48
2023-04-09T01:40:33.000Z,13.65
2023-04-09T01:43:01.379Z,14.63
2023-04-09T01:45:28.088Z,13.95
2023-04-09T01:47:56.358Z,14.85
2023-04-09T01:50:23.361Z,13.95
2023-04-09T01:52:50.254Z,15.15
2023-04-09T01:55:16.776Z,15.05
2023-04-09T01:57:43.193Z,14.45
2023-04-09T02:00:10.798Z,13.40
2023-04-09T02:02:48.913Z,15.32
2023-04-09T02:05:18.386Z,14.32
2023-04-09T02:07:51.259Z,13.88
2023-04-09T02:10:20.346Z,13.63
2023-04-09T02:12:50.868Z,14.13
2023-04-09T02:15:19.542Z,14.32
2023-04-09T02:17:46.484Z,14.80
2023-04-09T02:20:17.666Z,14.27
2023-04-09T02:22:44.595Z,15.05
2023-04-09T02:25:11.224Z,14.38
2023-04-09T02:27:37.642Z,14.30
2023-04-09T02:30:04.508Z,13.93
2023-04-09T02:32:30.944Z,14.18
2023-04-09T02:34:57.389Z,14.43
2023-04-09T02:37:23.858Z,14.85
2023-04-09T02:39:50.327Z,13.60
2023-04-09T02:42:16.832Z,15.65
2023-04-09T02:44:44.365Z,15.13
2023-04-09T02:47:10.948Z,15.30
2023-04-09T02:49:37.400Z,14.38
2023-04-09T02:52:04.952Z,15.10
2023-04-09T02:54:31.336Z,15.07
2023-04-09T02:56:57.790Z,14.45
2023-04-09T02:59:24.173Z,14.52
2023-04-09T03:01:50.701Z,14.75
2023-04-09T03:04:17.186Z,13.85
2023-04-09T03:06:43.640Z,14.00
2023-04-09T03:09:10.031Z,14.75
2023-04-09T03:11:36.543Z,14.07
2023-04-09T03:14:02.967Z,13.45
2023-04-09T03:16:29.378Z,14.00
2023-04-09T03:18:55.954Z,14.57
2023-04-09T03:21:22.391Z,15.00
2023-04-09T03:23:48.821Z,13.68
2023-04-09T03:26:15.509Z,14.35
2023-04-09T03:28:42.013Z,13.25
2023-04-09T03:31:08.421Z,14.25
2023-04-09T03:33:34.858Z,14.75
2023-04-09T03:36:01.432Z,13.88
2023-04-09T03:38:28.022Z,13.60
2023-04-09T03:40:55.914Z,13.65
2023-04-09T03:43:22.411Z,13.93
2023-04-09T03:45:48.848Z,14.90
2023-04-09T03:48:15.421Z,12.70
2023-04-09T03:50:42.281Z,13.95
2023-04-09T03:53:08.824Z,14.38
2023-04-09T03:55:35.485Z,13.45
2023-04-09T03:58:01.980Z,14.13
2023-04-09T04:00:28.480Z,14.07
2023-04-09T04:02:55.005Z,13.80
2023-04-09T04:05:24.569Z,14.10
2023-04-09T04:07:51.145Z,13.55
2023-04-09T04:10:17.712Z,13.70
2023-04-09T04:12:44.188Z,13.52
2023-04-09T04:15:10.863Z,13.70
2023-04-09T04:17:37.346Z,12.93
2023-04-09T04:20:04.116Z,13.85
2023-04-09T04:22:30.789Z,13.35
2023-04-09T04:24:57.267Z,13.20
2023-04-09T04:27:23.759Z,13.20
2023-04-09T04:29:50.335Z,14.38
2023-04-09T04:32:17.043Z,12.93
2023-04-09T04:34:43.501Z,13.63
2023-04-09T04:37:09.963Z,13.27
2023-04-09T04:39:36.400Z,13.75
2023-04-09T04:42:02.866Z,13.73
2023-04-09T04:44:29.366Z,13.40
2023-04-09T04:46:55.890Z,13.43
2023-04-09T04:49:22.398Z,13.70
2023-04-09T04:51:48.844Z,12.85
2023-04-09T04:54:15.242Z,12.52
2023-04-09T04:56:41.648Z,13.02
2023-04-09T04:59:08.125Z,13.38
2023-04-09T05:01:34.730Z,14.40
2023-04-09T05:04:03.250Z,14.57
2023-04-09T05:06:29.996Z,14.35
2023-04-09T05:08:59.384Z,13.15
2023-04-09T05:11:25.867Z,13.50
2023-04-09T05:13:52.315Z,13.85
2023-04-09T05:16:20.842Z,13.75
2023-04-09T05:18:47.860Z,14.27
2023-04-09T05:21:14.304Z,13.35
2023-04-09T05:23:40.721Z,14.27
2023-04-09T05:26:07.207Z,13.52
2023-04-09T05:28:33.895Z,14.40
2023-04-09T05:31:00.383Z,14.73
2023-04-09T05:33:26.900Z,13.75
2023-04-09T05:35:53.387Z,13.70
2023-04-09T05:38:19.843Z,14.50
2023-04-09T05:40:46.260Z,14.50
2023-04-09T05:43:12.770Z,14.57
2023-04-09T05:45:39.362Z,15.50
2023-04-09T05:48:06.182Z,14.85
2023-04-09T05:50:38.179Z,15.50
2023-04-09T05:53:14.150Z,14.65
2023-04-09T05:55:40.870Z,16.90
2023-04-09T05:58:07.324Z,14.95
2023-04-09T06:00:33.746Z,16.00
2023-04-09T06:03:00.435Z,16.23
2023-04-09T06:05:26.987Z,16.98
2023-04-09T06:07:53.515Z,16.90
2023-04-09T06:10:19.904Z,16.73
2023-04-09T06:12:46.257Z,16.88
2023-04-09T06:15:12.730Z,16.90
2023-04-09T06:17:39.250Z,16.38
2023-04-09T06:20:06.685Z,16.38
2023-04-09T06:22:33.156Z,15.52
2023-04-09T06:24:59.974Z,16.63
2023-04-09T06:27:26.633Z,15.38
2023-04-09T06:29:53.035Z,15.65
2023-04-09T06:32:20.515Z,15.10
2023-04-09T06:34:48.288Z,15.25
2023-04-09T06:37:14.751Z,14.30
2023-04-09T06:39:47.648Z,15.45
2023-04-09T06:42:24.621Z,13.90
2023-04-09T06:44:51.655Z,14.40
2023-04-09T06:47:18.091Z,14.98
2023-04-09T06:49:44.579Z,14.32
2023-04-09T06:52:11.025Z,13.65
2023-04-09T06:54:37.392Z,14.02
2023-04-09T06:57:03.834Z,14.23
2023-04-09T06:59:30.241Z,13.90
2023-04-09T07:01:56.764Z,13.20
2023-04-09T07:04:23.347Z,12.57
2023-04-09T07:06:49.779Z,14.25
2023-04-09T07:09:17.632Z,12.98
2023-04-09T07:11:44.338Z,13.10
2023-04-09T07:14:10.768Z,13.68
2023-04-09T07:16:37.417Z,12.57
2023-04-09T07:19:03.989Z,12.45
2023-04-09T07:21:30.461Z,12.85
2023-04-09T07:23:57.593Z,12.00
2023-04-09T07:26:24.100Z,12.85
2023-04-09T07:28:50.639Z,13.93
2023-04-09T07:31:17.146Z,13.85
2023-04-09T07:33:43.574Z,13.90
2023-04-09T07:36:10.068Z,13.00
2023-04-09T07:38:36.613Z,13.05
2023-04-09T07:41:03.028Z,12.13
2023-04-09T07:43:29.508Z,12.40
2023-04-09T07:45:55.978Z,11.85
2023-04-09T07:48:22.456Z,11.07
2023-04-09T07:50:48.958Z,11.30
2023-04-09T07:53:15.582Z,12.20
2023-04-09T07:55:42.059Z,13.27
2023-04-09T07:58:08.578Z,12.32
2023-04-09T08:00:35.090Z,12.88
2023-04-09T08:03:03.785Z,12.60
2023-04-09T08:05:30.771Z,13.25
2023-04-09T08:07:57.191Z,12.38
2023-04-09T08:10:23.706Z,12.68
2023-04-09T08:12:50.317Z,12.65
2023-04-09T08:15:16.800Z,13.30
2023-04-09T08:17:43.308Z,12.95
2023-04-09T08:20:10.658Z,13.45
2023-04-09T08:22:37.177Z,12.85
2023-04-09T08:25:03.741Z,12.95
2023-04-09T08:27:30.287Z,12.55
2023-04-09T08:29:56.677Z,12.30
2023-04-09T08:32:23.221Z,14.48
2023-04-09T08:34:49.732Z,13.65
2023-04-09T08:37:16.703Z,12.45
2023-04-09T08:39:43.158Z,14.77
2023-04-09T08:42:12.540Z,14.30
2023-04-09T08:44:39.016Z,13.73
2023-04-09T08:47:11.469Z,14.73
2023-04-09T08:49:41.824Z,15.20
2023-04-09T08:52:08.524Z,14.10
2023-04-09T08:54:35.582Z,13.35
2023-04-09T08:57:06.182Z,14.90
2023-04-09T08:59:36.883Z,15.57
2023-04-09T09:02:08.232Z,14.52
2023-04-09T09:04:48.520Z,14.95
2023-04-09T09:07:16.429Z,15.15
2023-04-09T09:09:54.580Z,15.02
2023-04-09T09:12:35.671Z,15.38
2023-04-09T09:15:02.869Z,15.70
2023-04-09T09:17:29.502Z,15.75
2023-04-09T09:19:56.136Z,18.15
2023-04-09T09:22:22.712Z,18.15
2023-04-09T09:24:51.163Z,16.42
2023-04-09T09:27:36.720Z,17.33
2023-04-09T09:30:05.646Z,17.42
2023-04-09T09:32:35.619Z,16.52
2023-04-09T09:35:07.223Z,15.95
2023-04-09T09:37:34.166Z,17.60
2023-04-09T09:40:01.321Z,17.48
2023-04-09T09:42:28.015Z,16.42
2023-04-09T09:44:55.454Z,16.58
2023-04-09T09:47:23.199Z,17.17
2023-04-09T09:49:50.377Z,15.60
2023-04-09T09:52:24.933Z,16.52
2023-04-09T09:54:53.187Z,15.82
2023-04-09T09:57:22.219Z,16.08
2023-04-09T09:59:55.630Z,15.80
2023-04-09T10:02:30.725Z,15.32
2023-04-09T10:05:01.175Z,16.05
2023-04-09T10:07:28.123Z,14.45
2023-04-09T10:09:56.777Z,15.00
2023-04-09T10:12:24.109Z,15.27
2023-04-09T10:14:52.896Z,16.85
2023-04-09T10:17:20.981Z,14.80
2023-04-09T10:20:00.263Z,14.90
2023-04-09T10:22:29.907Z,14.93
2023-04-09T10:24:58.068Z,13.65
2023-04-09T10:27:27.099Z,13.60
2023-04-09T10:29:53.558Z,13.98
2023-04-09T10:32:26.605Z,13.65
2023-04-09T10:34:57.265Z,14.52
2023-04-09T10:37:26.093Z,14.50
2023-04-09T10:39:53.182Z,13.68
2023-04-09T10:42:30.591Z,14.85
2023-04-09T10:45:07.808Z,14.77
2023-04-09T10:47:36.175Z,14.75
2023-04-09T10:50:14.654Z,13.93
2023-04-09T10:52:42.285Z,13.35
2023-04-09T10:55:08.832Z,13.55
2023-04-09T10:57:35.455Z,14.07
2023-04-09T11:00:01.989Z,13.55
2023-04-09T11:02:31.930Z,13.00
2023-04-09T11:05:04.328Z,11.77
2023-04-09T11:07:35.541Z,11.40
2023-04-09T11:10:01.961Z,12.02
2023-04-09T11:12:28.378Z,11.43
2023-04-09T11:14:54.769Z,10.93
2023-04-09T11:17:21.318Z,11.38
2023-04-09T11:19:47.969Z,11.05
2023-04-09T11:22:15.732Z,10.43
2023-04-09T11:24:43.260Z,10.00
2023-04-09T11:27:09.789Z,9.25
2023-04-09T11:29:36.710Z,9.13
2023-04-09T11:32:05.198Z,9.10
2023-04-09T11:34:32.496Z,8.90
2023-04-09T11:36:59.836Z,8.43
2023-04-09T11:39:26.461Z,8.23
2023-04-09T11:41:53.302Z,7.47
2023-04-09T11:44:21.626Z,7.70
2023-04-09T11:46:49.206Z,7.43
2023-04-09T11:49:17.333Z,8.13
2023-04-09T11:51:43.774Z,7.88
2023-04-09T11:54:12.234Z,7.55
2023-04-09T11:56:38.640Z,8.07
2023-04-09T11:59:05.090Z,8.30
2023-04-09T12:01:35.619Z,8.02
2023-04-09T12:06:29.744Z,8.27
2023-04-09T12:08:57.973Z,8.30
2023-04-09T12:11:31.964Z,8.30
2023-04-09T12:13:59.726Z,8.32
2023-04-09T12:16:26.238Z,8.75
2023-04-09T12:18:55.814Z,8.32
2023-04-09T12:21:27.557Z,8.40
2023-04-09T12:23:53.973Z,8.27
2023-04-09T12:26:20.941Z,7.50
2023-04-09T12:28:47.584Z,7.22
2023-04-09T12:31:13.982Z,7.55
2023-04-09T12:33:41.032Z,7.60
2023-04-09T12:36:07.652Z,7.35
2023-04-09T12:38:34.121Z,7.43
2023-04-09T12:41:01.289Z,6.90
2023-04-09T12:43:27.862Z,7.88
2023-04-09T12:45:54.398Z,8.43
2023-04-09T12:48:20.985Z,7.07
2023-04-09T12:50:47.739Z,7.60
2023-04-09T12:53:14.411Z,8.38
2023-04-09T12:55:42.760Z,7.55
2023-04-09T12:58:09.506Z,7.75
2023-04-09T13:00:35.929Z,8.00
2023-04-09T13:03:02.514Z,7.80
2023-04-09T13:05:31.431Z,8.02
2023-04-09T13:07:58.012Z,8.57
2023-04-09T13:10:25.281Z,7.85
2023-04-09T13:12:51.708Z,7.68
2023-04-09T13:15:18.120Z,7.65
2023-04-09T13:17:44.596Z,7.97
2023-04-09T13:20:11.367Z,8.25
2023-04-09T13:22:37.898Z,8.18
2023-04-09T13:25:05.083Z,8.23
2023-04-09T13:27:31.581Z,7.43
2023-04-09T13:29:58.090Z,7.63
2023-04-09T13:32:24.732Z,8.25
2023-04-09T13:34:51.374Z,8.38
2023-04-09T13:37:17.874Z,7.90
2023-04-09T13:39:44.749Z,7.60
2023-04-09T13:42:14.005Z,7.97
2023-04-09T13:44:42.444Z,8.05
2023-04-09T13:47:11.186Z,8.10
2023-04-09T13:49:37.793Z,7.65
2023-04-09T13:52:04.984Z,8.05
2023-04-09T13:54:32.131Z,8.10
2023-04-09T13:56:58.568Z,7.50
2023-04-09T13:59:25.070Z,7.93
2023-04-09T14:01:51.663Z,7.85
2023-04-09T14:04:19.363Z,8.10
2023-04-09T14:06:46.295Z,7.90
2023-04-09T14:09:13.080Z,8.13
2023-04-09T14:11:39.508Z,8.27
2023-04-09T14:14:05.922Z,7.85
2023-04-09T14:16:32.539Z,7.57
2023-04-09T14:18:59.182Z,7.97
2023-04-09T14:21:26.884Z,7.32
2023-04-09T14:23:53.396Z,6.57
2023-04-09T14:26:21.253Z,7.18
2023-04-09T14:28:49.394Z,7.28
2023-04-09T14:31:20.126Z,8.15
2023-04-09T14:33:47.382Z,7.30
2023-04-09T14:36:13.901Z,7.85
2023-04-09T14:38:41.377Z,7.85
2023-04-09T14:41:07.935Z,7.88
2023-04-09T14:43:34.406Z,8.18
2023-04-09T14:46:00.941Z,7.63
2023-04-09T14:48:27.368Z,7.95
2023-04-09T14:50:53.842Z,7.63
2023-04-09T14:53:20.768Z,7.93
2023-04-09T14:55:47.197Z,7.82
2023-04-09T14:58:13.617Z,7.68
2023-04-09T15:00:40.061Z,8.43
2023-04-09T15:03:07.035Z,8.13
2023-04-09T15:05:33.683Z,7.85
2023-04-09T15:08:00.220Z,7.75
2023-04-09T15:10:26.665Z,7.72
2023-04-09T15:12:53.109Z,7.85
2023-04-09T15:15:19.575Z,7.18
2023-04-09T15:17:46.086Z,7.22
2023-04-09T15:20:13.885Z,7.20
2023-04-09T15:22:40.607Z,7.78
2023-04-09T15:25:07.366Z,7.95
2023-04-09T15:27:33.797Z,8.15
2023-04-09T15:30:00.340Z,8.38
2023-04-09T15:32:28.377Z,8.93
2023-04-09T15:34:54.750Z,7.85
2023-04-09T15:37:21.549Z,8.27
2023-04-09T15:39:47.935Z,8.05
2023-04-09T15:42:20.234Z,7.60
2023-04-09T15:44:46.629Z,7.90
2023-04-09T15:47:13.133Z,7.63
2023-04-09T15:49:39.590Z,6.90
2023-04-09T15:52:06.259Z,7.18
2023-04-09T15:54:32.882Z,7.50
2023-04-09T15:56:59.281Z,7.25
2023-04-09T15:59:25.798Z,7.43
2023-04-09T16:01:52.736Z,6.43
2023-04-09T16:04:19.211Z,7.10
2023-04-09T16:06:45.757Z,6.47
2023-04-09T16:09:12.172Z,7.68
2023-04-09T16:11:38.556Z,6.95
2023-04-09T16:14:05.090Z,7.15
2023-04-09T16:16:31.736Z,8.50
2023-04-09T16:18:58.422Z,7.35
2023-04-09T16:21:24.896Z,7.28
2023-04-09T16:23:51.618Z,7.28
2023-04-09T16:26:18.017Z,6.75
2023-04-09T16:28:44.434Z,7.28
2023-04-09T16:31:11.020Z,6.75
2023-04-09T16:33:37.462Z,6.53
2023-04-09T16:36:04.147Z,6.63
2023-04-09T16:38:31.233Z,7.63
2023-04-09T16:40:57.864Z,6.85
2023-04-09T16:43:24.950Z,6.10
2023-04-09T16:45:52.224Z,6.78
2023-04-09T16:48:18.854Z,6.88
2023-04-09T16:50:45.287Z,7.65
2023-04-09T16:53:11.714Z,7.97
2023-04-09T16:55:38.155Z,7.45
2023-04-09T16:58:04.611Z,7.95
2023-04-09T17:00:31.481Z,7.03
2023-04-09T17:02:58.203Z,7.30
2023-04-09T17:05:24.990Z,7.53
2023-04-09T17:07:52.394Z,7.55
2023-04-09T17:10:19.305Z,7.75
2023-04-09T17:12:45.784Z,7.57
2023-04-09T17:15:12.215Z,7.65
2023-04-09T17:17:38.675Z,7.80
2023-04-09T17:20:05.893Z,7.43
2023-04-09T17:22:32.494Z,8.40
2023-04-09T17:24:58.866Z,7.22
2023-04-09T17:27:25.385Z,7.75
2023-04-09T17:29:51.758Z,7.82
2023-04-09T17:32:18.754Z,7.90
2023-04-09T17:34:49.398Z,8.07
2023-04-09T17:39:42.215Z,8.32
2023-04-09T17:42:08.713Z,7.95
2023-04-09T17:44:35.489Z,8.07
2023-04-09T17:47:05.689Z,7.55
2023-04-09T17:49:32.422Z,8.20
2023-04-09T17:51:59.442Z,7.40
2023-04-09T17:54:25.874Z,7.53
2023-04-09T17:56:52.402Z,8.35
2023-04-09T17:59:18.840Z,9.00
2023-04-09T18:01:45.428Z,8.30
2023-04-09T18:04:12.104Z,8.23
2023-04-09T18:06:38.840Z,7.80
2023-04-09T18:09:05.291Z,7.35
2023-04-09T18:11:31.921Z,8.48
2023-04-09T18:13:58.409Z,9.07
2023-04-09T18:16:25.066Z,13.10
2023-04-09T18:18:52.034Z,8.63
2023-04-09T18:21:18.616Z,8.23
2023-04-09T18:23:44.974Z,9.93
2023-04-09T18:26:11.451Z,12.52
2023-04-09T18:28:37.842Z,10.25
2023-04-09T18:31:04.526Z,9.35
2023-04-09T18:33:31.514Z,9.13
2023-04-09T18:36:00.630Z,9.80
2023-04-09T18:38:28.790Z,10.60
2023-04-09T18:40:56.623Z,9.65
2023-04-09T18:43:26.868Z,9.45
2023-04-09T18:45:53.809Z,11.30
2023-04-09T18:48:20.333Z,10.55
2023-04-09T18:50:47.027Z,8.90
2023-04-09T18:53:13.486Z,8.95
2023-04-09T18:55:40.252Z,9.35
2023-04-09T18:58:12.764Z,9.27
2023-04-09T19:00:39.583Z,9.77
2023-04-09T19:03:06.274Z,9.55
2023-04-09T19:05:33.700Z,9.55
2023-04-09T19:08:05.265Z,10.43
2023-04-09T19:10:32.819Z,10.32
2023-04-09T19:12:59.258Z,10.07
2023-04-09T19:15:26.814Z,9.57
2023-04-09T19:17:53.701Z,10.02
2023-04-09T19:20:20.188Z,10.07
2023-04-09T19:22:48.289Z,9.38
2023-04-09T19:25:16.345Z,9.32
2023-04-09T19:27:43.312Z,9.13
2023-04-09T19:30:10.453Z,9.40
2023-04-09T19:32:37.007Z,11.15
2023-04-09T19:35:03.834Z,10.40
2023-04-09T19:37:30.551Z,10.18
2023-04-09T19:39:58.177Z,9.35
2023-04-09T19:42:25.054Z,10.63
2023-04-09T19:44:51.463Z,11.05
2023-04-09T19:47:17.947Z,9.77
2023-04-09T19:49:44.766Z,9.40
2023-04-09T19:52:11.194Z,9.82
2023-04-09T19:54:37.684Z,8.43
2023-04-09T19:57:04.225Z,7.57
2023-04-09T19:59:32.316Z,7.75
2023-04-09T20:01:59.948Z,7.88
2023-04-09T20:04:26.510Z,9.02
2023-04-09T20:06:52.916Z,9.13
2023-04-09T20:09:20.872Z,9.13
2023-04-09T20:11:47.715Z,9.80
2023-04-09T20:14:14.204Z,9.43
2023-04-09T20:16:40.694Z,9.82
2023-04-09T20:19:07.381Z,10.55
2023-04-09T20:21:34.250Z,9.75
2023-04-09T20:24:00.679Z,9.38
2023-04-09T20:26:27.098Z,10.50
2023-04-09T20:28:53.752Z,11.70
2023-04-09T20:31:20.353Z,13.60
2023-04-09T20:33:47.060Z,10.52
2023-04-09T20:36:17.604Z,9.65
2023-04-09T20:38:44.281Z,10.80
2023-04-09T20:41:10.972Z,9.90
2023-04-09T20:43:38.347Z,10.00
2023-04-09T20:46:05.936Z,10.38
2023-04-09T20:48:32.518Z,10.95
2023-04-09T20:50:59.031Z,10.80
2023-04-09T20:53:25.503Z,11.13
2023-04-09T20:55:54.905Z,11.30
2023-04-09T20:58:21.368Z,11.27
2023-04-09T21:00:47.795Z,10.60
2023-04-09T21:03:14.445Z,11.60
2023-04-09T21:05:41.475Z,11.40
2023-04-09T21:08:07.877Z,10.48
2023-04-09T21:10:34.254Z,10.77
2023-04-09T21:13:00.764Z,10.98
2023-04-09T21:15:27.255Z,10.60
2023-04-09T21:17:53.686Z,11.65
2023-04-09T21:20:20.292Z,10.93
2023-04-09T21:22:47.010Z,10.82
2023-04-09T21:25:15.356Z,10.77
2023-04-09T21:27:42.139Z,10.43
2023-04-09T21:30:08.969Z,10.90
2023-04-09T21:32:35.473Z,11.25
2023-04-09T21:35:02.020Z,11.05
2023-04-09T21:37:28.967Z,11.40
2023-04-09T21:39:55.429Z,10.50
2023-04-09T21:42:22.424Z,10.88
2023-04-09T21:44:48.804Z,10.52
2023-04-09T21:47:15.202Z,11.15
2023-04-09T21:49:43.059Z,11.02
2023-04-09T21:52:14.785Z,11.15
2023-04-09T21:54:42.701Z,10.95
2023-04-09T21:57:09.683Z,10.25
2023-04-09T21:59:36.422Z,10.13
2023-04-09T22:02:05.097Z,9.75
2023-04-09T22:04:31.672Z,9.18
2023-04-09T22:06:58.229Z,10.23
2023-04-09T22:09:24.695Z,9.73
2023-04-09T22:11:51.144Z,9.50
2023-04-09T22:14:19.072Z,9.73
2023-04-09T22:16:46.423Z,9.93
2023-04-09T22:19:14.134Z,9.88
2023-04-09T22:21:41.408Z,9.77
2023-04-09T22:24:08.042Z,10.60
2023-04-09T22:26:34.593Z,9.75
2023-04-09T22:29:03.905Z,10.02
2023-04-09T22:34:06.935Z,9.40
2023-04-09T22:36:40.066Z,9.20
2023-04-09T22:39:06.560Z,8.93
2023-04-09T22:41:33.042Z,8.48
2023-04-09T22:43:59.411Z,9.98
2023-04-09T22:46:26.148Z,8.18
2023-04-09T22:48:52.565Z,9.30
2023-04-09T22:51:19.073Z,9.15
2023-04-09T22:53:46.629Z,9.68
2023-04-09T22:56:13.331Z,9.05
2023-04-09T22:58:40.296Z,10.10
2023-04-09T23:01:07.219Z,9.73
2023-04-09T23:03:33.782Z,9.77
2023-04-09T23:06:00.527Z,8.88
2023-04-09T23:08:27.034Z,9.43
2023-04-09T23:10:54.189Z,10.30
2023-04-09T23:13:20.566Z,9.85
2023-04-09T23:15:47.115Z,10.93
2023-04-09T23:18:13.634Z,10.82
2023-04-09T23:20:40.266Z,11.20
2023-04-09T23:23:06.727Z,11.60
2023-04-09T23:25:35.831Z,12.00
2023-04-09T23:28:02.593Z,11.00
2023-04-09T23:30:29.050Z,11.15
2023-04-09T23:32:57.528Z,10.88
2023-04-09T23:35:24.221Z,10.95
2023-04-09T23:37:50.912Z,10.27
2023-04-09T23:40:20.262Z,10.30
2023-04-09T23:42:48.078Z,9.57
2023-04-09T23:45:14.638Z,12.50
2023-04-09T23:47:41.355Z,11.88
2023-04-09T23:50:08.560Z,11.82
2023-04-09T23:52:36.657Z,12.55
2023-04-09T23:55:04.417Z,11.00
2023-04-09T23:57:30.936Z,12.18
2023-04-09T23:59:57.594Z,11.45
